Ornslund, Denmark
Current Conditions -  °F | °C
As of 4:20 PM on Saturday 25 Oct 2014 (Local Time) from EKAH Reporting Station
Broken Clouds Broken Clouds  
Wind Chill: 55°   Ceiling: 1400
Heat Index: 55°   Visibility: 6mi
Dew Point: 52°   Wind: 3mph
Humidity: 88%   Direction: 200°SSW
Pressure: 29.97"   Gusts: NA
Location:  55.7°N, 10.6°E
Report Text: EKAH 251420Z AUTO 20003KT 9999NDV BKN014/// BKN056///13/11 Q1015
Loading
Personal Weather Stations






























Interactive Weather Map New forecast layout! Learn more

10-Day Weather Forecast

Advertisements
Track Severe Weather on mobile